createdAt,value
2023-04-01T00:00:41.172Z,9.51
2023-04-01T00:03:45.047Z,9.60
2023-04-01T00:06:50.854Z,9.52
2023-04-01T00:09:53.954Z,9.56
2023-04-01T00:12:58.303Z,9.58
2023-04-01T00:16:03.406Z,9.59
2023-04-01T00:19:06.981Z,9.61
2023-04-01T00:22:12.475Z,9.66
2023-04-01T00:25:21.757Z,9.67
2023-04-01T00:28:26.312Z,9.66
2023-04-01T00:31:29.872Z,9.67
2023-04-01T00:34:32.913Z,9.62
2023-04-01T00:37:40.567Z,9.66
2023-04-01T00:40:46.567Z,9.68
2023-04-01T00:43:53.212Z,9.66
2023-04-01T00:46:58.856Z,9.64
2023-04-01T00:50:03.267Z,9.69
2023-04-01T00:53:09.060Z,9.67
2023-04-01T00:56:16.991Z,9.70
2023-04-01T00:59:26.095Z,9.71
2023-04-01T01:02:30.818Z,9.71
2023-04-01T01:05:50.115Z,9.74
2023-04-01T01:09:16.557Z,9.69
2023-04-01T01:12:22.726Z,9.63
2023-04-01T01:15:32.020Z,9.69
2023-04-01T01:18:41.318Z,9.69
2023-04-01T01:22:26.425Z,9.70
2023-04-01T01:25:42.672Z,9.70
2023-04-01T01:28:57.192Z,9.74
2023-04-01T01:32:10.463Z,9.76
2023-04-01T01:35:26.848Z,9.69
2023-04-01T01:38:35.434Z,9.71
2023-04-01T01:41:43.492Z,9.67
2023-04-01T01:44:49.455Z,9.70
2023-04-01T01:47:54.507Z,9.70
2023-04-01T01:50:59.646Z,9.74
2023-04-01T01:54:02.950Z,9.72
2023-04-01T01:57:11.267Z,9.74
2023-04-01T02:00:20.317Z,9.75
2023-04-01T02:03:30.696Z,9.68
2023-04-01T02:06:40.364Z,9.71
2023-04-01T02:09:46.122Z,9.67
2023-04-01T02:12:51.779Z,9.69
2023-04-01T02:16:02.614Z,9.69
2023-04-01T02:19:09.162Z,9.68
2023-04-01T02:22:18.242Z,9.62
2023-04-01T02:25:26.041Z,9.65
2023-04-01T02:28:30.405Z,9.57
2023-04-01T02:31:35.329Z,9.65
2023-04-01T02:34:39.648Z,9.60
2023-04-01T02:37:45.807Z,9.60
2023-04-01T02:40:52.150Z,9.60
2023-04-01T02:43:55.947Z,9.67
2023-04-01T02:46:59.050Z,9.67
2023-04-01T02:50:02.072Z,9.65
2023-04-01T02:53:07.297Z,9.67
2023-04-01T02:56:10.514Z,9.67
2023-04-01T02:59:13.747Z,9.70
2023-04-01T03:02:17.157Z,9.74
2023-04-01T03:05:20.516Z,9.76
2023-04-01T03:08:24.866Z,9.76
2023-04-01T03:11:28.416Z,9.79
2023-04-01T03:14:31.423Z,9.75
2023-04-01T03:17:34.551Z,9.79
2023-04-01T03:20:40.479Z,9.71
2023-04-01T03:23:45.156Z,9.73
2023-04-01T03:26:48.145Z,9.77
2023-04-01T03:29:51.592Z,9.75
2023-04-01T03:32:54.853Z,9.73
2023-04-01T03:35:58.375Z,9.76
2023-04-01T03:39:04.024Z,9.78
2023-04-01T03:42:15.746Z,9.72
2023-04-01T03:45:18.754Z,9.76
2023-04-01T03:48:24.009Z,9.70
2023-04-01T03:51:27.047Z,9.69
2023-04-01T03:54:31.511Z,9.73
2023-04-01T03:57:34.770Z,9.72
2023-04-01T04:00:48.292Z,9.74
2023-04-01T04:03:51.898Z,9.75
2023-04-01T04:06:55.385Z,9.73
2023-04-01T04:10:00.980Z,9.77
2023-04-01T04:13:03.966Z,9.73
2023-04-01T04:16:10.733Z,9.74
2023-04-01T04:19:17.930Z,9.73
2023-04-01T04:22:21.138Z,9.78
2023-04-01T04:25:25.865Z,9.66
2023-04-01T04:28:29.529Z,9.70
2023-04-01T04:31:36.509Z,9.73
2023-04-01T04:34:40.817Z,9.75
2023-04-01T04:37:44.339Z,9.79
2023-04-01T04:40:48.925Z,9.77
2023-04-01T04:43:54.948Z,9.80
2023-04-01T04:46:59.215Z,9.76
2023-04-01T04:50:03.023Z,9.77
2023-04-01T04:53:06.275Z,9.77
2023-04-01T04:56:11.529Z,9.77
2023-04-01T04:59:23.493Z,9.79
2023-04-01T05:02:44.851Z,9.85
2023-04-01T05:05:54.873Z,9.86
2023-04-01T05:08:58.600Z,9.86
2023-04-01T05:12:03.307Z,9.83
2023-04-01T05:15:20.296Z,9.85
2023-04-01T05:18:23.453Z,9.83
2023-04-01T05:21:26.544Z,9.83
2023-04-01T05:24:30.867Z,9.81
2023-04-01T05:27:35.434Z,9.82
2023-04-01T05:30:38.697Z,9.89
2023-04-01T05:33:57.989Z,9.92
2023-04-01T05:37:01.027Z,9.90
2023-04-01T05:40:06.576Z,9.93
2023-04-01T05:43:28.925Z,9.93
2023-04-01T05:46:33.632Z,9.97
2023-04-01T05:50:06.823Z,9.99
2023-04-01T05:53:09.843Z,10.02
2023-04-01T05:56:45.894Z,9.99
2023-04-01T05:59:52.573Z,10.06
2023-04-01T06:06:27.088Z,10.12
2023-04-01T06:09:34.128Z,10.14
2023-04-01T06:12:52.111Z,10.16
2023-04-01T06:16:10.088Z,10.15
2023-04-01T06:19:38.540Z,10.10
2023-04-01T06:23:06.736Z,10.13
2023-04-01T06:26:22.329Z,10.15
2023-04-01T06:29:55.375Z,10.17
2023-04-01T06:33:22.358Z,10.14
2023-04-01T06:36:48.260Z,10.02
2023-04-01T06:40:08.994Z,10.12
2023-04-01T06:43:25.400Z,10.12
2023-04-01T06:46:53.992Z,10.16
2023-04-01T06:51:09.996Z,10.25
2023-04-01T06:55:04.229Z,10.18
2023-04-01T06:58:39.495Z,10.23
2023-04-01T07:02:25.409Z,10.28
2023-04-01T07:05:33.986Z,10.31
2023-04-01T07:08:42.901Z,10.37
2023-04-01T07:11:47.806Z,10.35
2023-04-01T07:15:39.650Z,10.25
2023-04-01T07:18:48.327Z,10.22
2023-04-01T07:21:58.242Z,10.34
2023-04-01T07:25:17.260Z,10.34
2023-04-01T07:28:25.016Z,10.27
2023-04-01T07:32:05.624Z,10.25
2023-04-01T07:35:25.022Z,10.31
2023-04-01T07:38:42.295Z,10.44
2023-04-01T07:42:01.711Z,10.54
2023-04-01T07:45:19.104Z,10.65
2023-04-01T07:48:32.252Z,10.66
2023-04-01T07:52:10.398Z,10.62
2023-04-01T07:55:26.107Z,10.59
2023-04-01T07:58:41.021Z,10.65
2023-04-01T08:01:55.192Z,10.67
2023-04-01T08:05:10.007Z,10.68
2023-04-01T08:08:22.096Z,10.53
2023-04-01T08:12:06.538Z,10.38
2023-04-01T08:15:55.646Z,10.34
2023-04-01T08:19:32.727Z,10.33
2023-04-01T08:22:42.850Z,10.13
2023-04-01T08:26:00.290Z,9.95
2023-04-01T08:29:14.478Z,9.85
2023-04-01T08:32:23.578Z,9.64
2023-04-01T08:35:38.413Z,9.47
2023-04-01T08:38:48.679Z,9.38
2023-04-01T08:42:32.988Z,9.37
2023-04-01T08:45:59.094Z,9.30
2023-04-01T08:49:23.477Z,9.36
2023-04-01T08:52:37.461Z,9.45
2023-04-01T08:56:02.142Z,9.40
2023-04-01T08:59:34.395Z,9.27
2023-04-01T09:03:15.196Z,9.43
2023-04-01T09:06:31.930Z,9.54
2023-04-01T09:10:44.047Z,9.62
2023-04-01T09:14:49.117Z,9.62
2023-04-01T09:18:59.885Z,9.60
2023-04-01T09:22:48.823Z,9.66
2023-04-01T09:26:15.942Z,9.62
2023-04-01T09:29:40.994Z,9.54
2023-04-01T09:33:45.346Z,9.48
2023-04-01T09:37:04.722Z,9.45
2023-04-01T09:40:19.605Z,9.46
2023-04-01T09:43:30.573Z,9.56
2023-04-01T09:47:02.357Z,9.63
2023-04-01T09:50:38.892Z,9.70
2023-04-01T09:53:59.294Z,9.50
2023-04-01T09:57:36.302Z,9.67
2023-04-01T10:01:33.938Z,9.50
2023-04-01T10:05:36.525Z,9.32
2023-04-01T10:09:28.907Z,9.38
2023-04-01T10:13:15.047Z,9.27
2023-04-01T10:16:40.423Z,9.22
2023-04-01T10:20:11.237Z,9.16
2023-04-01T10:23:43.939Z,9.17
2023-04-01T10:27:08.714Z,9.38
2023-04-01T10:31:14.031Z,9.19
2023-04-01T10:35:16.470Z,9.28
2023-04-01T10:38:49.226Z,9.36
2023-04-01T10:42:24.913Z,9.44
2023-04-01T10:47:03.788Z,9.23
2023-04-01T10:50:29.429Z,9.43
2023-04-01T10:54:16.834Z,9.26
2023-04-01T10:58:20.774Z,9.20
2023-04-01T11:02:42.403Z,9.17
2023-04-01T11:06:45.782Z,9.14
2023-04-01T11:10:56.773Z,9.10
2023-04-01T11:15:03.984Z,9.23
2023-04-01T11:18:45.359Z,9.25
2023-04-01T11:22:21.949Z,9.04
2023-04-01T11:25:56.393Z,9.11
2023-04-01T11:30:00.920Z,9.08
2023-04-01T11:33:19.430Z,9.09
2023-04-01T11:36:40.432Z,9.03
2023-04-01T11:40:05.198Z,9.02
2023-04-01T11:44:03.239Z,8.95
2023-04-01T11:48:35.144Z,9.00
2023-04-01T11:51:59.652Z,9.02
2023-04-01T11:55:26.012Z,9.03
2023-04-01T11:59:00.024Z,9.07
2023-04-01T12:02:13.986Z,9.08
2023-04-01T12:05:33.440Z,9.06
2023-04-01T12:08:47.770Z,9.00
2023-04-01T12:12:05.303Z,8.92
2023-04-01T12:15:23.392Z,8.88
2023-04-01T12:18:37.120Z,8.90
2023-04-01T12:21:49.262Z,8.87
2023-04-01T12:25:01.713Z,8.75
2023-04-01T12:28:18.833Z,8.81
2023-04-01T12:31:37.828Z,8.90
2023-04-01T12:35:18.387Z,8.88
2023-04-01T12:38:34.361Z,8.81
2023-04-01T12:41:48.678Z,8.92
2023-04-01T12:45:06.679Z,9.01
2023-04-01T12:48:42.437Z,8.69
2023-04-01T12:52:08.488Z,8.56
2023-04-01T12:55:42.584Z,8.56
2023-04-01T12:59:18.750Z,8.73
2023-04-01T13:02:37.063Z,8.95
2023-04-01T13:06:25.488Z,8.78
2023-04-01T13:09:44.651Z,8.79
2023-04-01T13:13:34.346Z,8.74
2023-04-01T13:16:41.801Z,8.59
2023-04-01T13:20:05.724Z,8.51
2023-04-01T13:23:27.220Z,8.29
2023-04-01T13:26:38.303Z,8.28
2023-04-01T13:29:46.261Z,8.30
2023-04-01T13:32:58.294Z,8.37
2023-04-01T13:36:19.768Z,8.28
2023-04-01T13:39:41.370Z,8.34
2023-04-01T13:42:51.615Z,8.39
2023-04-01T13:46:22.634Z,8.32
2023-04-01T13:49:55.481Z,8.37
2023-04-01T13:53:35.508Z,8.29
2023-04-01T13:56:52.633Z,8.36
2023-04-01T14:00:24.648Z,8.11
2023-04-01T14:03:45.456Z,8.18
2023-04-01T14:07:06.957Z,8.00
2023-04-01T14:10:23.024Z,7.93
2023-04-01T14:13:40.783Z,8.00
2023-04-01T14:17:10.965Z,8.00
2023-04-01T14:20:41.606Z,8.08
2023-04-01T14:24:10.982Z,7.99
2023-04-01T14:27:40.321Z,7.90
2023-04-01T14:31:13.890Z,8.03
2023-04-01T14:34:40.655Z,7.91
2023-04-01T14:38:07.249Z,7.87
2023-04-01T14:41:23.141Z,7.91
2023-04-01T14:45:03.863Z,7.91
2023-04-01T14:48:24.014Z,7.91
2023-04-01T14:51:33.416Z,7.99
2023-04-01T14:54:40.109Z,8.06
2023-04-01T14:57:43.167Z,8.19
2023-04-01T15:00:56.252Z,7.95
2023-04-01T15:04:18.678Z,7.93
2023-04-01T15:07:56.009Z,7.91
2023-04-01T15:11:22.741Z,7.70
2023-04-01T15:14:48.909Z,7.48
2023-04-01T15:18:11.245Z,7.51
2023-04-01T15:21:27.764Z,7.44
2023-04-01T15:24:45.065Z,7.53
2023-04-01T15:27:57.165Z,7.55
2023-04-01T15:31:06.304Z,7.45
2023-04-01T15:34:34.620Z,7.47
2023-04-01T15:37:48.667Z,7.39
2023-04-01T15:41:00.540Z,7.40
2023-04-01T15:44:04.371Z,7.35
2023-04-01T15:47:29.862Z,7.31
2023-04-01T15:51:04.666Z,7.38
2023-04-01T15:54:26.999Z,7.28
2023-04-01T15:57:41.635Z,7.37
2023-04-01T16:00:52.116Z,7.17
2023-04-01T16:04:13.419Z,7.17
2023-04-01T16:07:32.074Z,7.15
2023-04-01T16:10:54.867Z,7.12
2023-04-01T16:14:12.184Z,7.17
2023-04-01T16:17:43.686Z,7.11
2023-04-01T16:20:53.991Z,7.09
2023-04-01T16:24:01.999Z,6.88
2023-04-01T16:27:13.587Z,6.83
2023-04-01T16:30:38.085Z,6.78
2023-04-01T16:33:50.958Z,6.83
2023-04-01T16:37:00.404Z,6.80
2023-04-01T16:40:25.240Z,6.72
2023-04-01T16:43:40.634Z,6.63
2023-04-01T16:46:46.325Z,6.59
2023-04-01T16:49:56.786Z,6.48
2023-04-01T16:53:04.719Z,6.51
2023-04-01T16:56:14.236Z,6.52
2023-04-01T16:59:24.209Z,6.33
2023-04-01T17:02:31.345Z,6.31
2023-04-01T17:05:47.117Z,6.24
2023-04-01T17:09:10.145Z,6.19
2023-04-01T17:12:22.079Z,6.13
2023-04-01T17:15:38.725Z,6.11
2023-04-01T17:18:53.865Z,6.08
2023-04-01T17:22:06.478Z,6.08
2023-04-01T17:25:31.663Z,5.96
2023-04-01T17:28:59.102Z,5.99
2023-04-01T17:32:12.694Z,5.94
2023-04-01T17:35:30.620Z,5.94
2023-04-01T17:39:07.925Z,5.93
2023-04-01T17:42:17.126Z,5.91
2023-04-01T17:45:37.578Z,5.79
2023-04-01T17:48:54.054Z,5.86
2023-04-01T17:52:03.567Z,5.72
2023-04-01T17:55:36.302Z,5.73
2023-04-01T17:58:48.250Z,5.61
2023-04-01T18:02:03.379Z,5.53
2023-04-01T18:05:43.352Z,5.50
2023-04-01T18:09:00.022Z,5.49
2023-04-01T18:12:15.477Z,5.46
2023-04-01T18:15:30.434Z,5.46
2023-04-01T18:18:48.342Z,5.50
2023-04-01T18:21:57.301Z,5.46
2023-04-01T18:25:12.921Z,5.45
2023-04-01T18:28:25.964Z,5.44
2023-04-01T18:31:37.537Z,5.38
2023-04-01T18:34:54.860Z,5.39
2023-04-01T18:38:06.937Z,5.32
2023-04-01T18:41:16.512Z,5.34
2023-04-01T18:44:32.343Z,5.27
2023-04-01T18:47:46.618Z,5.36
2023-04-01T18:50:55.408Z,5.34
2023-04-01T18:54:04.893Z,5.36
2023-04-01T18:57:16.276Z,5.31
2023-04-01T19:00:24.467Z,5.28
2023-04-01T19:03:37.023Z,5.26
2023-04-01T19:06:55.705Z,5.18
2023-04-01T19:10:36.645Z,5.14
2023-04-01T19:14:00.531Z,5.15
2023-04-01T19:17:30.191Z,5.15
2023-04-01T19:20:48.267Z,5.12
2023-04-01T19:24:28.522Z,5.05
2023-04-01T19:27:39.691Z,5.03
2023-04-01T19:30:55.931Z,5.00
2023-04-01T19:34:16.856Z,4.94
2023-04-01T19:37:33.245Z,4.89
2023-04-01T19:41:21.181Z,4.85
2023-04-01T19:44:47.526Z,4.75
2023-04-01T19:48:04.262Z,4.70
2023-04-01T19:51:24.881Z,4.74
2023-04-01T19:54:43.217Z,4.67
2023-04-01T19:58:00.222Z,4.70
2023-04-01T20:01:08.657Z,4.76
2023-04-01T20:04:17.140Z,4.71
2023-04-01T20:07:29.298Z,4.68
2023-04-01T20:10:40.101Z,4.64
2023-04-01T20:13:56.105Z,4.65
2023-04-01T20:17:13.461Z,4.63
2023-04-01T20:20:22.801Z,4.68
2023-04-01T20:23:42.216Z,4.63
2023-04-01T20:26:52.260Z,4.64
2023-04-01T20:30:18.954Z,4.66
2023-04-01T20:33:53.364Z,4.59
2023-04-01T20:37:12.200Z,4.48
2023-04-01T20:40:37.155Z,4.37
2023-04-01T20:44:12.046Z,4.29
2023-04-01T20:47:29.501Z,4.26
2023-04-01T20:50:43.905Z,4.25
2023-04-01T20:53:53.471Z,4.24
2023-04-01T20:57:07.180Z,4.22
2023-04-01T21:00:30.047Z,4.20
2023-04-01T21:03:47.429Z,4.10
2023-04-01T21:07:06.331Z,4.06
2023-04-01T21:10:36.991Z,4.09
2023-04-01T21:14:04.222Z,4.01
2023-04-01T21:17:20.160Z,3.93
2023-04-01T21:20:48.226Z,3.89
2023-04-01T21:24:25.818Z,3.92
2023-04-01T21:27:44.590Z,3.89
2023-04-01T21:31:08.066Z,3.88
2023-04-01T21:34:46.173Z,3.88
2023-04-01T21:38:09.116Z,3.81
2023-04-01T21:41:40.157Z,3.86
2023-04-01T21:45:05.592Z,3.83
2023-04-01T21:48:44.812Z,3.85
2023-04-01T21:52:29.068Z,3.82
2023-04-01T21:56:07.694Z,3.76
2023-04-01T21:59:41.678Z,3.78
2023-04-01T22:03:27.851Z,3.75
2023-04-01T22:06:36.939Z,3.77
2023-04-01T22:09:45.448Z,3.74
2023-04-01T22:12:56.778Z,3.74
2023-04-01T22:16:11.708Z,3.73
2023-04-01T22:19:22.963Z,3.78
2023-04-01T22:22:36.851Z,3.73
2023-04-01T22:25:46.964Z,3.77
2023-04-01T22:28:57.321Z,3.77
2023-04-01T22:32:08.284Z,3.74
2023-04-01T22:35:26.376Z,3.70
2023-04-01T22:38:48.298Z,3.68
2023-04-01T22:42:03.883Z,3.69
2023-04-01T22:45:26.915Z,3.65
2023-04-01T22:48:39.336Z,3.65
2023-04-01T22:51:47.220Z,3.67
2023-04-01T22:54:55.161Z,3.63
2023-04-01T22:58:05.154Z,3.63
2023-04-01T23:01:14.596Z,3.64
2023-04-01T23:04:27.127Z,3.62
2023-04-01T23:07:47.401Z,3.61
2023-04-01T23:10:55.277Z,3.59
2023-04-01T23:14:26.865Z,3.59
2023-04-01T23:17:53.613Z,3.57
2023-04-01T23:21:17.850Z,3.53
2023-04-01T23:24:28.929Z,3.55
2023-04-01T23:27:38.054Z,3.53
2023-04-01T23:30:53.065Z,3.56
2023-04-01T23:33:57.664Z,3.53
2023-04-01T23:37:08.709Z,3.50
2023-04-01T23:40:15.530Z,3.54
2023-04-01T23:43:27.676Z,3.53
2023-04-01T23:46:35.936Z,3.50
2023-04-01T23:49:43.982Z,3.49
2023-04-01T23:52:53.689Z,3.53
2023-04-01T23:55:58.227Z,3.56
2023-04-01T23:59:01.264Z,3.52
